createdAt,value
2018-12-29T00:00:57.912Z,1006.92
2018-12-29T00:01:57.898Z,1006.9
2018-12-29T00:02:57.887Z,1006.94
2018-12-29T00:03:57.899Z,1006.97
2018-12-29T00:04:57.871Z,1006.96
2018-12-29T00:05:57.859Z,1006.98
2018-12-29T00:06:57.841Z,1006.99
2018-12-29T00:07:57.831Z,1007.01
2018-12-29T00:08:57.823Z,1007.01
2018-12-29T00:09:57.809Z,1006.98
2018-12-29T00:10:57.798Z,1006.96
2018-12-29T00:11:57.790Z,1006.92
2018-12-29T00:12:57.789Z,1006.94
2018-12-29T00:13:57.764Z,1006.96
2018-12-29T00:14:57.775Z,1006.94
2018-12-29T00:15:57.744Z,1006.94
2018-12-29T00:16:57.742Z,1006.94
2018-12-29T00:17:57.732Z,1006.95
2018-12-29T00:18:57.731Z,1006.95
2018-12-29T00:19:57.704Z,1006.95
2018-12-29T00:20:57.692Z,1006.88
2018-12-29T00:21:57.687Z,1006.92
2018-12-29T00:22:57.680Z,1006.87
2018-12-29T00:23:57.659Z,1006.83
2018-12-29T00:24:57.642Z,1006.73
2018-12-29T00:25:57.631Z,1006.71
2018-12-29T00:26:57.620Z,1006.74
2018-12-29T00:27:57.609Z,1006.76
2018-12-29T00:28:57.597Z,1006.74
2018-12-29T00:29:57.589Z,1006.71
2018-12-29T00:30:57.584Z,1006.71
2018-12-29T00:31:57.569Z,1006.76
2018-12-29T00:32:57.558Z,1006.77
2018-12-29T00:33:57.543Z,1006.81
2018-12-29T00:34:57.531Z,1006.81
2018-12-29T00:35:57.522Z,1006.8
2018-12-29T00:36:57.510Z,1006.83
2018-12-29T00:37:57.500Z,1006.9
2018-12-29T00:38:57.492Z,1006.94
2018-12-29T00:39:57.479Z,1006.96
2018-12-29T00:40:57.469Z,1006.96
2018-12-29T00:41:57.462Z,1006.91
2018-12-29T00:42:57.447Z,1006.85
2018-12-29T00:43:57.437Z,1006.91
2018-12-29T00:45:02.348Z,1007
2018-12-29T00:45:57.415Z,1007.11
2018-12-29T00:46:57.413Z,1007.13
2018-12-29T00:47:57.461Z,1007.05
2018-12-29T00:48:57.381Z,1006.99
2018-12-29T00:49:57.369Z,1007.05
2018-12-29T00:50:57.360Z,1007.14
2018-12-29T00:51:57.350Z,1007.12
2018-12-29T00:52:57.337Z,1007.09
2018-12-29T00:53:57.331Z,1007.13
2018-12-29T00:54:57.317Z,1007.17
2018-12-29T00:55:57.306Z,1007.22
2018-12-29T00:56:57.292Z,1007.26
2018-12-29T00:57:57.292Z,1007.3
2018-12-29T00:58:57.274Z,1007.29
2018-12-29T00:59:57.280Z,1007.29
2018-12-29T01:00:57.253Z,1007.26
2018-12-29T01:01:57.238Z,1007.27
2018-12-29T01:02:57.235Z,1007.27
2018-12-29T01:03:57.216Z,1007.28
2018-12-29T01:04:57.207Z,1007.3
2018-12-29T01:05:57.192Z,1007.22
2018-12-29T01:06:57.185Z,1007.23
2018-12-29T01:07:57.171Z,1007.21
2018-12-29T01:08:57.169Z,1007.27
2018-12-29T01:09:57.155Z,1007.33
2018-12-29T01:10:57.142Z,1007.37
2018-12-29T01:11:57.129Z,1007.42
2018-12-29T01:12:57.115Z,1007.42
2018-12-29T01:13:57.106Z,1007.35
2018-12-29T01:14:57.097Z,1007.42
2018-12-29T01:15:57.097Z,1007.44
2018-12-29T01:16:57.072Z,1007.4
2018-12-29T01:17:57.064Z,1007.43
2018-12-29T01:18:57.050Z,1007.43
2018-12-29T01:19:57.190Z,1007.51
2018-12-29T01:20:57.027Z,1007.49
2018-12-29T01:21:57.018Z,1007.52
2018-12-29T01:22:57.006Z,1007.46
2018-12-29T01:23:56.998Z,1007.44
2018-12-29T01:24:56.985Z,1007.46
2018-12-29T01:25:56.975Z,1007.5
2018-12-29T01:26:56.963Z,1007.59
2018-12-29T01:27:56.952Z,1007.53
2018-12-29T01:28:56.978Z,1007.58
2018-12-29T01:29:56.936Z,1007.55
2018-12-29T01:30:56.921Z,1007.58
2018-12-29T01:31:56.909Z,1007.65
2018-12-29T01:32:56.898Z,1007.68
2018-12-29T01:33:56.897Z,1007.66
2018-12-29T01:34:56.878Z,1007.7
2018-12-29T01:35:56.863Z,1007.65
2018-12-29T01:36:56.849Z,1007.7
2018-12-29T01:37:56.839Z,1007.7
2018-12-29T01:38:56.829Z,1007.74
2018-12-29T01:39:56.824Z,1007.71
2018-12-29T01:40:56.813Z,1007.69
2018-12-29T01:41:56.798Z,1007.68
2018-12-29T01:42:56.785Z,1007.74
2018-12-29T01:43:56.775Z,1007.72
2018-12-29T01:44:56.772Z,1007.71
2018-12-29T01:45:56.754Z,1007.68
2018-12-29T01:46:56.740Z,1007.71
2018-12-29T01:47:56.733Z,1007.72
2018-12-29T01:48:56.725Z,1007.76
2018-12-29T01:49:56.710Z,1007.73
2018-12-29T01:50:56.700Z,1007.79
2018-12-29T01:51:56.703Z,1007.81
2018-12-29T01:52:56.677Z,1007.76
2018-12-29T01:53:56.666Z,1007.75
2018-12-29T01:54:56.654Z,1007.76
2018-12-29T01:55:56.646Z,1007.75
2018-12-29T01:56:56.638Z,1007.74
2018-12-29T01:57:56.637Z,1007.69
2018-12-29T01:58:56.621Z,1007.69
2018-12-29T01:59:56.613Z,1007.67
2018-12-29T02:00:56.590Z,1007.67
2018-12-29T02:01:56.587Z,1007.66
2018-12-29T02:02:56.591Z,1007.66
2018-12-29T02:03:56.565Z,1007.72
2018-12-29T02:04:56.556Z,1007.73
2018-12-29T02:05:56.535Z,1007.77
2018-12-29T02:06:56.526Z,1007.72
2018-12-29T02:07:56.517Z,1007.71
2018-12-29T02:08:56.504Z,1007.75
2018-12-29T02:09:56.497Z,1007.71
2018-12-29T02:10:56.479Z,1007.71
2018-12-29T02:11:56.498Z,1007.71
2018-12-29T02:12:56.457Z,1007.66
2018-12-29T02:13:56.467Z,1007.65
2018-12-29T02:14:56.476Z,1007.64
2018-12-29T02:15:56.460Z,1007.62
2018-12-29T02:16:56.416Z,1007.65
2018-12-29T02:17:56.414Z,1007.59
2018-12-29T02:18:56.392Z,1007.57
2018-12-29T02:19:56.382Z,1007.54
2018-12-29T02:20:56.371Z,1007.55
2018-12-29T02:21:56.361Z,1007.6
2018-12-29T02:22:56.350Z,1007.56
2018-12-29T02:23:56.339Z,1007.53
2018-12-29T02:24:56.353Z,1007.44
2018-12-29T02:25:56.314Z,1007.41
2018-12-29T02:26:56.328Z,1007.46
2018-12-29T02:27:56.295Z,1007.48
2018-12-29T02:28:56.281Z,1007.42
2018-12-29T02:29:56.269Z,1007.36
2018-12-29T02:30:56.279Z,1007.34
2018-12-29T02:31:56.252Z,1007.29
2018-12-29T02:32:56.235Z,1007.22
2018-12-29T02:33:56.262Z,1007.17
2018-12-29T02:34:56.237Z,1007.16
2018-12-29T02:35:56.204Z,1007.16
2018-12-29T02:36:56.221Z,1007.12
2018-12-29T02:37:56.184Z,1007.12
2018-12-29T02:38:56.174Z,1007.2
2018-12-29T02:39:56.177Z,1007.25
2018-12-29T02:40:56.146Z,1007.23
2018-12-29T02:41:56.138Z,1007.25
2018-12-29T02:42:56.125Z,1007.22
2018-12-29T02:43:56.114Z,1007.31
2018-12-29T02:44:56.104Z,1007.3
2018-12-29T02:45:56.097Z,1007.38
2018-12-29T02:46:56.082Z,1007.37
2018-12-29T02:47:56.071Z,1007.44
2018-12-29T02:48:56.063Z,1007.5
2018-12-29T02:49:56.048Z,1007.5
2018-12-29T02:50:58.092Z,1007.52
2018-12-29T02:51:56.027Z,1007.55
2018-12-29T02:52:56.042Z,1007.53
2018-12-29T02:53:56.006Z,1007.52
2018-12-29T02:54:55.994Z,1007.54
2018-12-29T02:55:55.989Z,1007.53
2018-12-29T02:56:55.991Z,1007.48
2018-12-29T02:57:55.963Z,1007.44
2018-12-29T02:58:55.950Z,1007.35
2018-12-29T02:59:55.938Z,1007.37
2018-12-29T03:00:55.929Z,1007.27
2018-12-29T03:01:55.915Z,1007.2
2018-12-29T03:02:55.904Z,1007.19
2018-12-29T03:03:55.902Z,1007.27
2018-12-29T03:04:55.884Z,1007.3
2018-12-29T03:05:55.878Z,1007.29
2018-12-29T03:06:55.870Z,1007.27
2018-12-29T03:07:55.856Z,1007.23
2018-12-29T03:08:55.841Z,1007.32
2018-12-29T03:09:55.830Z,1007.37
2018-12-29T03:10:55.827Z,1007.33
2018-12-29T03:11:55.814Z,1007.29
2018-12-29T03:12:55.799Z,1007.3
2018-12-29T03:13:55.785Z,1007.37
2018-12-29T03:14:55.775Z,1007.37
2018-12-29T03:15:55.771Z,1007.33
2018-12-29T03:16:55.751Z,1007.33
2018-12-29T03:17:55.758Z,1007.35
2018-12-29T03:18:55.735Z,1007.31
2018-12-29T03:19:55.719Z,1007.32
2018-12-29T03:20:55.708Z,1007.31
2018-12-29T03:21:55.697Z,1007.27
2018-12-29T03:22:55.688Z,1007.21
2018-12-29T03:23:55.694Z,1007.26
2018-12-29T03:24:55.665Z,1007.2
2018-12-29T03:25:55.654Z,1007.14
2018-12-29T03:26:55.643Z,1007.12
2018-12-29T03:27:55.633Z,1007.09
2018-12-29T03:28:55.627Z,1007.09
2018-12-29T03:29:55.610Z,1007.08
2018-12-29T03:30:55.603Z,1007.08
2018-12-29T03:31:55.590Z,1007.05
2018-12-29T03:32:55.591Z,1007.09
2018-12-29T03:33:55.570Z,1007.06
2018-12-29T03:34:55.554Z,1007.1
2018-12-29T03:35:55.544Z,1007.09
2018-12-29T03:36:55.536Z,1007.07
2018-12-29T03:37:55.524Z,1007.11
2018-12-29T03:38:55.512Z,1007.1
2018-12-29T03:39:55.512Z,1007.13
2018-12-29T03:40:55.490Z,1007.15
2018-12-29T03:41:55.484Z,1007.17
2018-12-29T03:42:55.475Z,1007.2
2018-12-29T03:43:55.461Z,1007.13
2018-12-29T03:44:55.446Z,1007.12
2018-12-29T03:45:55.433Z,1007.13
2018-12-29T03:46:55.424Z,1007.16
2018-12-29T03:47:55.419Z,1007.12
2018-12-29T03:48:55.410Z,1007.13
2018-12-29T03:49:55.393Z,1007.18
2018-12-29T03:50:55.399Z,1007.16
2018-12-29T03:51:55.370Z,1007.11
2018-12-29T03:52:55.359Z,1007.06
2018-12-29T03:53:55.347Z,1007.03
2018-12-29T03:54:55.337Z,1007.04
2018-12-29T03:55:55.327Z,1007.03
2018-12-29T03:56:55.327Z,1007.09
2018-12-29T03:57:55.305Z,1007.09
2018-12-29T03:58:55.291Z,1007.12
2018-12-29T03:59:55.286Z,1007.08
2018-12-29T04:00:55.286Z,1007.07
2018-12-29T04:01:55.279Z,1007.04
2018-12-29T04:02:55.248Z,1007.11
2018-12-29T04:03:55.240Z,1007.13
2018-12-29T04:04:55.237Z,1007.13
2018-12-29T04:05:55.216Z,1007.11
2018-12-29T04:06:55.214Z,1007.12
2018-12-29T04:07:55.203Z,1007.09
2018-12-29T04:08:55.185Z,1007.09
2018-12-29T04:09:55.182Z,1007.13
2018-12-29T04:10:55.166Z,1007.17
2018-12-29T04:11:55.176Z,1007.2
2018-12-29T04:12:55.141Z,1007.18
2018-12-29T04:13:55.159Z,1007.17
2018-12-29T04:14:55.143Z,1007.21
2018-12-29T04:15:58.109Z,1007.16
2018-12-29T04:16:55.114Z,1007.14
2018-12-29T04:17:55.088Z,1007.07
2018-12-29T04:18:55.099Z,1007.13
2018-12-29T04:19:55.066Z,1007.1
2018-12-29T04:20:55.052Z,1007.06
2018-12-29T04:21:56.790Z,1007.08
2018-12-29T04:22:55.027Z,1007.1
2018-12-29T04:23:55.059Z,1007.09
2018-12-29T04:24:55.019Z,1007.08
2018-12-29T04:25:55.001Z,1007.12
2018-12-29T04:26:54.992Z,1007.12
2018-12-29T04:27:54.982Z,1007.16
2018-12-29T04:28:54.966Z,1007.13
2018-12-29T04:29:54.958Z,1007.19
2018-12-29T04:30:54.936Z,1007.17
2018-12-29T04:31:54.953Z,1007.1
2018-12-29T04:32:54.930Z,1007.08
2018-12-29T04:33:54.911Z,1007
2018-12-29T04:34:54.898Z,1006.96
2018-12-29T04:35:54.909Z,1006.85
2018-12-29T04:36:54.878Z,1006.87
2018-12-29T04:37:54.891Z,1006.84
2018-12-29T04:38:54.858Z,1006.83
2018-12-29T04:39:54.846Z,1006.86
2018-12-29T04:40:54.843Z,1006.83
2018-12-29T04:41:54.816Z,1006.81
2018-12-29T04:42:54.824Z,1006.85
2018-12-29T04:43:54.796Z,1006.87
2018-12-29T04:44:54.857Z,1006.83
2018-12-29T04:45:54.785Z,1006.9
2018-12-29T04:46:54.773Z,1006.89
2018-12-29T04:47:54.768Z,1006.88
2018-12-29T04:48:54.743Z,1006.9
2018-12-29T04:49:54.744Z,1006.91
2018-12-29T04:50:54.716Z,1006.86
2018-12-29T04:51:54.713Z,1006.88
2018-12-29T04:52:54.693Z,1006.92
2018-12-29T04:53:54.681Z,1006.92
2018-12-29T04:54:54.681Z,1006.9
2018-12-29T04:55:54.660Z,1006.89
2018-12-29T04:56:54.650Z,1006.87
2018-12-29T04:57:54.639Z,1006.83
2018-12-29T04:58:54.652Z,1006.84
2018-12-29T04:59:54.614Z,1006.88
2018-12-29T05:00:54.609Z,1006.92
2018-12-29T05:01:54.593Z,1006.93
2018-12-29T05:02:54.579Z,1006.97
2018-12-29T05:03:54.571Z,1006.99
2018-12-29T05:04:54.553Z,1006.94
2018-12-29T05:05:54.548Z,1006.92
2018-12-29T05:06:54.539Z,1007
2018-12-29T05:07:54.521Z,1006.98
2018-12-29T05:08:54.509Z,1006.97
2018-12-29T05:09:54.498Z,1006.95
2018-12-29T05:10:54.486Z,1006.97
2018-12-29T05:11:54.476Z,1006.99
2018-12-29T05:12:54.465Z,1007.01
2018-12-29T05:13:54.453Z,1007.06
2018-12-29T05:14:54.442Z,1007.04
2018-12-29T05:15:54.429Z,1007.14
2018-12-29T05:16:54.434Z,1007.1
2018-12-29T05:17:54.405Z,1007.16
2018-12-29T05:18:54.394Z,1007.16
2018-12-29T05:19:54.383Z,1007.07
2018-12-29T05:20:54.370Z,1007.14
2018-12-29T05:21:54.360Z,1007.12
2018-12-29T05:22:54.346Z,1007.18
2018-12-29T05:23:54.336Z,1007.22
2018-12-29T05:24:54.326Z,1007.19
2018-12-29T05:25:54.311Z,1007.2
2018-12-29T05:26:54.300Z,1007.17
2018-12-29T05:27:54.291Z,1007.18
2018-12-29T05:28:54.277Z,1007.17
2018-12-29T05:29:54.265Z,1007.25
2018-12-29T05:30:54.253Z,1007.29
2018-12-29T05:31:54.243Z,1007.34
2018-12-29T05:32:54.229Z,1007.32
2018-12-29T05:33:54.218Z,1007.36
2018-12-29T05:34:54.206Z,1007.3
2018-12-29T05:35:54.196Z,1007.35
2018-12-29T05:36:54.183Z,1007.36
2018-12-29T05:37:54.172Z,1007.36
2018-12-29T05:38:54.161Z,1007.35
2018-12-29T05:39:54.151Z,1007.34
2018-12-29T05:40:54.139Z,1007.39
2018-12-29T05:41:54.123Z,1007.37
2018-12-29T05:42:54.115Z,1007.43
2018-12-29T05:43:54.109Z,1007.38
2018-12-29T05:44:54.089Z,1007.42
2018-12-29T05:45:54.079Z,1007.49
2018-12-29T05:46:54.067Z,1007.47
2018-12-29T05:47:54.058Z,1007.49
2018-12-29T05:48:54.042Z,1007.53
2018-12-29T05:49:54.032Z,1007.53
2018-12-29T05:50:54.019Z,1007.51
2018-12-29T05:51:54.007Z,1007.58
2018-12-29T05:52:53.994Z,1007.58
2018-12-29T05:53:53.982Z,1007.59
2018-12-29T05:54:53.974Z,1007.59
2018-12-29T05:55:53.969Z,1007.58
2018-12-29T05:56:53.947Z,1007.6
2018-12-29T05:57:53.945Z,1007.63
2018-12-29T05:58:53.927Z,1007.64
2018-12-29T05:59:53.912Z,1007.64
2018-12-29T06:00:53.903Z,1007.6
2018-12-29T06:01:53.891Z,1007.62
2018-12-29T06:02:53.878Z,1007.62
2018-12-29T06:03:53.870Z,1007.66
2018-12-29T06:04:53.858Z,1007.63
2018-12-29T06:05:53.846Z,1007.59
2018-12-29T06:06:53.878Z,1007.61
2018-12-29T06:07:53.821Z,1007.57
2018-12-29T06:08:53.814Z,1007.61
2018-12-29T06:09:53.812Z,1007.67
2018-12-29T06:10:53.785Z,1007.7
2018-12-29T06:11:53.776Z,1007.65
2018-12-29T06:12:53.764Z,1007.69
2018-12-29T06:13:53.752Z,1007.7
2018-12-29T06:14:53.739Z,1007.66
2018-12-29T06:15:53.730Z,1007.72
2018-12-29T06:16:53.721Z,1007.71
2018-12-29T06:17:53.704Z,1007.7
2018-12-29T06:18:53.695Z,1007.72
2018-12-29T06:19:53.682Z,1007.74
2018-12-29T06:20:53.679Z,1007.78
2018-12-29T06:21:53.658Z,1007.75
2018-12-29T06:22:53.649Z,1007.71
2018-12-29T06:23:53.637Z,1007.78
2018-12-29T06:24:53.626Z,1007.86
2018-12-29T06:25:53.613Z,1007.89
2018-12-29T06:26:53.608Z,1007.91
2018-12-29T06:27:53.664Z,1007.93
2018-12-29T06:28:53.578Z,1007.99
2018-12-29T06:29:53.585Z,1008.01
2018-12-29T06:30:53.560Z,1008.03
2018-12-29T06:31:53.573Z,1008
2018-12-29T06:32:53.537Z,1007.95
2018-12-29T06:33:53.528Z,1007.96
2018-12-29T06:34:53.514Z,1007.96
2018-12-29T06:35:53.510Z,1007.96
2018-12-29T06:36:53.489Z,1007.95
2018-12-29T06:37:53.476Z,1007.93
2018-12-29T06:38:53.466Z,1007.93
2018-12-29T06:39:53.454Z,1007.92
2018-12-29T06:40:53.446Z,1007.83
2018-12-29T06:41:53.433Z,1007.81
2018-12-29T06:42:53.419Z,1007.8
2018-12-29T06:43:53.413Z,1007.79
2018-12-29T06:44:53.395Z,1007.81
2018-12-29T06:45:53.388Z,1007.79
2018-12-29T06:46:53.374Z,1007.8
2018-12-29T06:47:53.370Z,1007.74
2018-12-29T06:48:53.354Z,1007.7
2018-12-29T06:49:53.338Z,1007.67
2018-12-29T06:50:53.335Z,1007.64
2018-12-29T06:51:53.316Z,1007.51
2018-12-29T06:52:53.304Z,1007.49
2018-12-29T06:53:53.293Z,1007.42
2018-12-29T06:54:53.283Z,1007.46
2018-12-29T06:55:53.270Z,1007.51
2018-12-29T06:56:53.259Z,1007.57
2018-12-29T06:57:53.247Z,1007.59
2018-12-29T06:58:53.238Z,1007.59
2018-12-29T06:59:53.224Z,1007.59
2018-12-29T07:00:53.213Z,1007.61
2018-12-29T07:01:53.201Z,1007.59
2018-12-29T07:02:53.195Z,1007.6
2018-12-29T07:03:53.178Z,1007.58
2018-12-29T07:04:53.171Z,1007.58
2018-12-29T07:05:53.152Z,1007.59
2018-12-29T07:06:53.147Z,1007.62
2018-12-29T07:07:53.128Z,1007.58
2018-12-29T07:08:53.128Z,1007.55
2018-12-29T07:09:53.105Z,1007.54
2018-12-29T07:10:53.095Z,1007.54
2018-12-29T07:11:53.085Z,1007.59
2018-12-29T07:12:53.072Z,1007.62
2018-12-29T07:13:53.059Z,1007.64
2018-12-29T07:14:53.048Z,1007.68
2018-12-29T07:15:53.038Z,1007.68
2018-12-29T07:16:53.035Z,1007.72
2018-12-29T07:17:53.018Z,1007.73
2018-12-29T07:18:53.002Z,1007.78
2018-12-29T07:19:52.988Z,1007.78
2018-12-29T07:20:52.977Z,1007.79
2018-12-29T07:21:52.966Z,1007.76
2018-12-29T07:22:52.958Z,1007.79
2018-12-29T07:23:52.959Z,1007.8
2018-12-29T07:24:52.943Z,1007.82
2018-12-29T07:25:52.919Z,1007.8
2018-12-29T07:26:52.909Z,1007.81
2018-12-29T07:27:52.897Z,1007.79
2018-12-29T07:28:52.891Z,1007.81
2018-12-29T07:29:52.877Z,1007.82
2018-12-29T07:30:52.862Z,1007.85
2018-12-29T07:31:52.853Z,1007.87
2018-12-29T07:32:52.838Z,1007.85
2018-12-29T07:33:52.827Z,1007.81
2018-12-29T07:34:52.817Z,1007.82
2018-12-29T07:35:52.830Z,1007.87
2018-12-29T07:36:52.792Z,1007.83
2018-12-29T07:37:52.786Z,1007.83
2018-12-29T07:38:52.768Z,1007.84
2018-12-29T07:39:52.809Z,1007.82
2018-12-29T07:40:52.746Z,1007.84
2018-12-29T07:41:52.734Z,1007.86
2018-12-29T07:42:52.721Z,1007.87
2018-12-29T07:43:52.710Z,1007.93
2018-12-29T07:44:52.699Z,1007.91
2018-12-29T07:45:52.687Z,1007.95
2018-12-29T07:46:52.696Z,1007.99
2018-12-29T07:47:52.665Z,1007.99
2018-12-29T07:48:52.658Z,1008.04
2018-12-29T07:49:52.640Z,1008.02
2018-12-29T07:50:52.637Z,1008
2018-12-29T07:51:52.619Z,1008.02
2018-12-29T07:52:52.606Z,1008
2018-12-29T07:53:52.595Z,1008.04
2018-12-29T07:54:53.588Z,1008.1
2018-12-29T07:55:52.574Z,1008.08
2018-12-29T07:56:52.561Z,1008.09
2018-12-29T07:57:52.549Z,1008.04
2018-12-29T07:58:52.539Z,1008.07
2018-12-29T07:59:52.534Z,1008.14
2018-12-29T08:00:52.516Z,1008.14
2018-12-29T08:01:52.513Z,1008.13
2018-12-29T08:02:52.504Z,1008.14
2018-12-29T08:03:52.482Z,1008.13
2018-12-29T08:04:52.475Z,1008.11
2018-12-29T08:05:52.470Z,1008.13
2018-12-29T08:06:52.461Z,1008.13
2018-12-29T08:07:52.447Z,1008.19
2018-12-29T08:08:52.431Z,1008.19
2018-12-29T08:09:52.416Z,1008.19
2018-12-29T08:10:52.412Z,1008.14
2018-12-29T08:11:52.408Z,1008.07
2018-12-29T08:12:52.380Z,1008.07
2018-12-29T08:13:52.373Z,1008.11
2018-12-29T08:14:52.358Z,1008.13
2018-12-29T08:15:52.348Z,1008.16
2018-12-29T08:16:56.742Z,1008.18
2018-12-29T08:17:52.325Z,1008.17
2018-12-29T08:18:52.324Z,1008.19
2018-12-29T08:19:52.301Z,1008.19
2018-12-29T08:20:52.302Z,1008.18
2018-12-29T08:21:52.281Z,1008.19
2018-12-29T08:22:52.270Z,1008.19
2018-12-29T08:23:52.258Z,1008.17
2018-12-29T08:24:52.247Z,1008.2
2018-12-29T08:25:52.234Z,1008.26
2018-12-29T08:26:52.224Z,1008.22
2018-12-29T08:27:52.213Z,1008.26
2018-12-29T08:28:52.204Z,1008.22
2018-12-29T08:29:52.192Z,1008.17
2018-12-29T08:30:52.181Z,1008.16
2018-12-29T08:31:52.169Z,1008.12
2018-12-29T08:32:52.158Z,1008.17
2018-12-29T08:33:52.145Z,1008.17
2018-12-29T08:34:52.135Z,1008.18
2018-12-29T08:35:52.130Z,1008.22
2018-12-29T08:36:52.117Z,1008.25
2018-12-29T08:37:52.103Z,1008.23
2018-12-29T08:38:52.093Z,1008.28
2018-12-29T08:39:52.083Z,1008.21
2018-12-29T08:40:52.069Z,1008.23
2018-12-29T08:41:52.064Z,1008.22
2018-12-29T08:42:52.044Z,1008.21
2018-12-29T08:43:52.034Z,1008.22
2018-12-29T08:44:52.026Z,1008.23
2018-12-29T08:45:52.016Z,1008.3
2018-12-29T08:46:52.008Z,1008.26
2018-12-29T08:47:51.991Z,1008.3
2018-12-29T08:48:51.983Z,1008.34
2018-12-29T08:49:51.967Z,1008.3
2018-12-29T08:50:51.967Z,1008.33
2018-12-29T08:51:51.946Z,1008.35
2018-12-29T08:52:51.938Z,1008.4
2018-12-29T08:53:51.927Z,1008.37
2018-12-29T08:54:51.916Z,1008.41
2018-12-29T08:55:51.905Z,1008.42
2018-12-29T08:56:51.895Z,1008.46
2018-12-29T08:57:51.881Z,1008.48
2018-12-29T08:58:51.881Z,1008.51
2018-12-29T08:59:51.866Z,1008.52
2018-12-29T09:00:51.855Z,1008.56
2018-12-29T09:01:51.844Z,1008.49
2018-12-29T09:02:51.831Z,1008.51
2018-12-29T09:03:51.817Z,1008.48
2018-12-29T09:04:51.807Z,1008.53
2018-12-29T09:05:51.799Z,1008.53
2018-12-29T09:06:51.790Z,1008.54
2018-12-29T09:07:51.786Z,1008.56
2018-12-29T09:08:51.770Z,1008.54
2018-12-29T09:09:51.752Z,1008.54
2018-12-29T09:10:51.742Z,1008.56
2018-12-29T09:11:51.732Z,1008.59
2018-12-29T09:12:51.731Z,1008.58
2018-12-29T09:13:51.742Z,1008.58
2018-12-29T09:14:51.712Z,1008.65
2018-12-29T09:15:51.689Z,1008.57
2018-12-29T09:16:51.681Z,1008.6
2018-12-29T09:17:51.669Z,1008.54
2018-12-29T09:18:51.665Z,1008.59
2018-12-29T09:19:51.649Z,1008.54
2018-12-29T09:20:51.637Z,1008.54
2018-12-29T09:21:51.627Z,1008.56
2018-12-29T09:22:51.616Z,1008.57
2018-12-29T09:23:51.617Z,1008.55
2018-12-29T09:24:51.656Z,1008.57
2018-12-29T09:25:51.601Z,1008.52
2018-12-29T09:26:51.577Z,1008.56
2018-12-29T09:27:51.567Z,1008.62
2018-12-29T09:28:51.556Z,1008.61
2018-12-29T09:29:51.547Z,1008.64
2018-12-29T09:30:51.538Z,1008.68
2018-12-29T09:31:51.526Z,1008.65
2018-12-29T09:32:51.514Z,1008.64
2018-12-29T09:33:51.505Z,1008.69
2018-12-29T09:34:51.502Z,1008.64
2018-12-29T09:35:51.486Z,1008.58
2018-12-29T09:36:51.473Z,1008.49
2018-12-29T09:37:51.470Z,1008.48
2018-12-29T09:38:51.456Z,1008.5
2018-12-29T09:39:51.447Z,1008.48
2018-12-29T09:40:51.435Z,1008.46
2018-12-29T09:41:51.512Z,1008.5
2018-12-29T09:42:51.418Z,1008.5
2018-12-29T09:43:51.415Z,1008.5
2018-12-29T09:44:51.402Z,1008.45
2018-12-29T09:45:51.390Z,1008.44
2018-12-29T09:46:51.382Z,1008.43
2018-12-29T09:47:51.369Z,1008.47
2018-12-29T09:48:51.364Z,1008.49
2018-12-29T09:49:51.362Z,1008.5
2018-12-29T09:50:51.350Z,1008.54
2018-12-29T09:51:51.332Z,1008.53
2018-12-29T09:52:51.322Z,1008.47
2018-12-29T09:53:51.320Z,1008.5
2018-12-29T09:54:51.303Z,1008.5
2018-12-29T09:55:51.295Z,1008.5
2018-12-29T09:56:51.287Z,1008.49
2018-12-29T09:57:51.278Z,1008.43
2018-12-29T09:58:51.266Z,1008.47
2018-12-29T09:59:51.263Z,1008.55
2018-12-29T10:00:51.249Z,1008.55
2018-12-29T10:01:51.239Z,1008.61
2018-12-29T10:02:51.230Z,1008.5
2018-12-29T10:03:51.221Z,1008.55
2018-12-29T10:04:51.209Z,1008.5
2018-12-29T10:05:51.200Z,1008.5
2018-12-29T10:06:51.212Z,1008.51
2018-12-29T10:07:51.183Z,1008.5
2018-12-29T10:08:51.175Z,1008.51
2018-12-29T10:09:51.171Z,1008.49
2018-12-29T10:10:51.156Z,1008.51
2018-12-29T10:11:51.148Z,1008.49
2018-12-29T10:12:51.146Z,1008.54
2018-12-29T10:13:51.142Z,1008.53
2018-12-29T10:14:51.122Z,1008.51
2018-12-29T10:15:51.111Z,1008.49
2018-12-29T10:16:51.111Z,1008.49
2018-12-29T10:17:51.093Z,1008.5
2018-12-29T10:18:51.090Z,1008.5
2018-12-29T10:19:51.072Z,1008.49
2018-12-29T10:20:51.076Z,1008.47
2018-12-29T10:21:51.057Z,1008.46
2018-12-29T10:22:51.067Z,1008.45
2018-12-29T10:23:51.038Z,1008.42
2018-12-29T10:24:51.029Z,1008.44
2018-12-29T10:25:51.020Z,1008.38
2018-12-29T10:26:51.011Z,1008.41
2018-12-29T10:27:51.000Z,1008.39
2018-12-29T10:28:50.991Z,1008.42
2018-12-29T10:29:51.003Z,1008.44
2018-12-29T10:30:50.975Z,1008.4
2018-12-29T10:31:50.966Z,1008.41
2018-12-29T10:32:50.957Z,1008.42
2018-12-29T10:33:50.947Z,1008.37
2018-12-29T10:34:50.940Z,1008.36
2018-12-29T10:35:50.935Z,1008.34
2018-12-29T10:36:50.922Z,1008.37
2018-12-29T10:37:50.912Z,1008.39
2018-12-29T10:38:50.903Z,1008.39
2018-12-29T10:39:50.895Z,1008.37
2018-12-29T10:40:50.884Z,1008.39
2018-12-29T10:41:50.877Z,1008.43
2018-12-29T10:42:50.868Z,1008.4
2018-12-29T10:43:50.855Z,1008.38
2018-12-29T10:44:50.845Z,1008.37
2018-12-29T10:45:50.836Z,1008.33
2018-12-29T10:46:50.828Z,1008.37
2018-12-29T10:47:50.849Z,1008.37
2018-12-29T10:48:50.809Z,1008.35
2018-12-29T10:49:50.798Z,1008.37
2018-12-29T10:50:50.789Z,1008.34
2018-12-29T10:51:50.780Z,1008.35
2018-12-29T10:52:50.776Z,1008.32
2018-12-29T10:53:50.782Z,1008.27
2018-12-29T10:54:50.763Z,1008.27
2018-12-29T10:55:50.754Z,1008.25
2018-12-29T10:56:50.734Z,1008.24
2018-12-29T10:57:50.724Z,1008.27
2018-12-29T10:58:50.714Z,1008.27
2018-12-29T10:59:50.702Z,1008.24
2018-12-29T11:00:50.700Z,1008.29
2018-12-29T11:01:50.685Z,1008.22
2018-12-29T11:02:50.675Z,1008.17
2018-12-29T11:03:50.669Z,1008.23
2018-12-29T11:04:50.676Z,1008.24
2018-12-29T11:05:50.645Z,1008.23
2018-12-29T11:06:50.639Z,1008.23
2018-12-29T11:07:50.625Z,1008.2
2018-12-29T11:08:50.620Z,1008.23
2018-12-29T11:09:50.611Z,1008.22
2018-12-29T11:10:50.598Z,1008.21
2018-12-29T11:11:50.593Z,1008.21
2018-12-29T11:12:50.585Z,1008.23
2018-12-29T11:13:50.574Z,1008.2
2018-12-29T11:14:50.562Z,1008.21
2018-12-29T11:15:50.573Z,1008.17
2018-12-29T11:16:50.546Z,1008.13
2018-12-29T11:17:50.543Z,1008.11
2018-12-29T11:18:50.531Z,1008.1
2018-12-29T11:19:50.523Z,1008.11
2018-12-29T11:20:50.515Z,1008.04
2018-12-29T11:21:50.507Z,1008
2018-12-29T11:22:50.507Z,1008
2018-12-29T11:23:50.485Z,1007.98
2018-12-29T11:24:50.472Z,1007.99
2018-12-29T11:25:50.468Z,1007.92
2018-12-29T11:26:50.864Z,1007.93
2018-12-29T11:27:50.457Z,1007.89
2018-12-29T11:28:50.456Z,1007.89
2018-12-29T11:29:50.430Z,1007.9
2018-12-29T11:30:50.419Z,1007.85
2018-12-29T11:31:50.429Z,1007.79
2018-12-29T11:32:50.400Z,1007.76
2018-12-29T11:33:50.402Z,1007.76
2018-12-29T11:34:50.382Z,1007.74
2018-12-29T11:35:50.377Z,1007.7
2018-12-29T11:36:50.365Z,1007.66
2018-12-29T11:37:50.411Z,1007.69
2018-12-29T11:38:50.348Z,1007.63
2018-12-29T11:39:50.338Z,1007.65
2018-12-29T11:40:50.331Z,1007.62
2018-12-29T11:41:50.372Z,1007.64
2018-12-29T11:42:50.311Z,1007.71
2018-12-29T11:43:50.309Z,1007.69
2018-12-29T11:44:50.296Z,1007.67
2018-12-29T11:45:50.286Z,1007.65
2018-12-29T11:46:50.279Z,1007.66
2018-12-29T11:47:50.271Z,1007.65
2018-12-29T11:48:50.263Z,1007.67
2018-12-29T11:49:50.260Z,1007.65
2018-12-29T11:50:50.244Z,1007.65
2018-12-29T11:51:50.234Z,1007.67
2018-12-29T11:52:50.226Z,1007.69
2018-12-29T11:53:50.217Z,1007.63
2018-12-29T11:54:50.209Z,1007.63
2018-12-29T11:55:50.205Z,1007.64
2018-12-29T11:56:50.208Z,1007.63
2018-12-29T11:57:50.182Z,1007.64
2018-12-29T11:58:50.175Z,1007.68
2018-12-29T11:59:50.172Z,1007.69
2018-12-29T12:00:50.157Z,1007.68
2018-12-29T12:01:50.163Z,1007.66
2018-12-29T12:02:50.137Z,1007.6
2018-12-29T12:03:50.130Z,1007.58
2018-12-29T12:04:50.126Z,1007.61
2018-12-29T12:05:50.110Z,1007.61
2018-12-29T12:06:50.111Z,1007.61
2018-12-29T12:07:50.100Z,1007.59
2018-12-29T12:08:50.083Z,1007.6